sensor_id;sensor_type;location;lat;lon;timestamp;temperature;humidity
47921;DHT22;33686;48.770;9.186;2022-10-12T05:16:57;12.10;99.90
47921;DHT22;33686;48.770;9.186;2022-10-12T05:19:22;12.20;99.90
47921;DHT22;33686;48.770;9.186;2022-10-12T05:21:48;12.20;99.90
47921;DHT22;33686;48.770;9.186;2022-10-12T05:24:14;12.20;99.90
47921;DHT22;33686;48.770;9.186;2022-10-12T05:26:39;12.20;99.90
47921;DHT22;33686;48.770;9.186;2022-10-12T05:29:05;12.10;99.90
47921;DHT22;33686;48.770;9.186;2022-10-12T05:31:30;12.20;99.90
47921;DHT22;33686;48.770;9.186;2022-10-12T05:33:56;12.20;99.90
47921;DHT22;33686;48.770;9.186;2022-10-12T05:36:21;12.30;99.90
47921;DHT22;33686;48.770;9.186;2022-10-12T05:38:47;12.20;99.90
47921;DHT22;33686;48.770;9.186;2022-10-12T05:41:13;12.20;99.90
47921;DHT22;33686;48.770;9.186;2022-10-12T05:43:38;12.30;99.90
47921;DHT22;33686;48.770;9.186;2022-10-12T05:46:04;12.20;99.90
47921;DHT22;33686;48.770;9.186;2022-10-12T05:48:30;12.20;99.90
47921;DHT22;33686;48.770;9.186;2022-10-12T05:50:55;12.20;99.90
47921;DHT22;33686;48.770;9.186;2022-10-12T05:53:21;12.20;99.90
47921;DHT22;33686;48.770;9.186;2022-10-12T05:55:50;12.20;99.90
47921;DHT22;33686;48.770;9.186;2022-10-12T05:58:16;12.30;99.90
47921;DHT22;33686;48.770;9.186;2022-10-12T06:00:42;12.30;99.90
47921;DHT22;33686;48.770;9.186;2022-10-12T06:03:07;12.30;99.90
47921;DHT22;33686;48.770;9.186;2022-10-12T06:05:33;12.30;99.90
47921;DHT22;33686;48.770;9.186;2022-10-12T06:07:58;12.30;99.90
47921;DHT22;33686;48.770;9.186;2022-10-12T06:10:24;12.30;99.90
47921;DHT22;33686;48.770;9.186;2022-10-12T06:12:49;12.30;99.90
47921;DHT22;33686;48.770;9.186;2022-10-12T06:15:15;12.40;99.90
47921;DHT22;33686;48.770;9.186;2022-10-12T06:17:40;12.40;99.90
47921;DHT22;33686;48.770;9.186;2022-10-12T06:20:06;12.50;99.90
47921;DHT22;33686;48.770;9.186;2022-10-12T06:22:32;12.60;99.90
47921;DHT22;33686;48.770;9.186;2022-10-12T06:24:57;12.70;99.90
47921;DHT22;33686;48.770;9.186;2022-10-12T06:27:23;12.70;99.90
47921;DHT22;33686;48.770;9.186;2022-10-12T06:29:49;12.70;99.90
47921;DHT22;33686;48.770;9.186;2022-10-12T06:32:15;12.70;99.90
47921;DHT22;33686;48.770;9.186;2022-10-12T06:34:40;12.70;99.90
47921;DHT22;33686;48.770;9.186;2022-10-12T06:37:06;12.80;99.90
47921;DHT22;33686;48.770;9.186;2022-10-12T06:39:31;12.80;99.90
47921;DHT22;33686;48.770;9.186;2022-10-12T06:41:57;12.80;99.90
47921;DHT22;33686;48.770;9.186;2022-10-12T06:44:26;12.70;99.90
47921;DHT22;33686;48.770;9.186;2022-10-12T06:46:52;12.80;99.90
47921;DHT22;33686;48.770;9.186;2022-10-12T06:49:17;12.80;99.90
47921;DHT22;33686;48.770;9.186;2022-10-12T06:51:43;12.80;99.90
47921;DHT22;33686;48.770;9.186;2022-10-12T06:54:08;12.80;99.90
47921;DHT22;33686;48.770;9.186;2022-10-12T06:56:34;13.00;99.90
47921;DHT22;33686;48.770;9.186;2022-10-12T06:59:02;13.10;99.90
47921;DHT22;33686;48.770;9.186;2022-10-12T07:01:28;13.20;99.90
47921;DHT22;33686;48.770;9.186;2022-10-12T07:03:53;13.20;99.90
47921;DHT22;33686;48.770;9.186;2022-10-12T07:06:19;13.20;99.90
47921;DHT22;33686;48.770;9.186;2022-10-12T07:08:44;13.20;99.90
47921;DHT22;33686;48.770;9.186;2022-10-12T07:11:10;13.20;99.90
47921;DHT22;33686;48.770;9.186;2022-10-12T07:13:36;13.20;99.90
47921;DHT22;33686;48.770;9.186;2022-10-12T07:16:02;13.30;99.90
47921;DHT22;33686;48.770;9.186;2022-10-12T07:18:28;13.40;99.90
47921;DHT22;33686;48.770;9.186;2022-10-12T07:20:57;13.40;99.90
47921;DHT22;33686;48.770;9.186;2022-10-12T07:23:27;13.40;99.90
47921;DHT22;33686;48.770;9.186;2022-10-12T07:25:53;13.40;99.90
47921;DHT22;33686;48.770;9.186;2022-10-12T07:28:19;13.30;99.90
47921;DHT22;33686;48.770;9.186;2022-10-12T07:30:45;13.40;99.90
47921;DHT22;33686;48.770;9.186;2022-10-12T07:33:10;13.40;99.90
47921;DHT22;33686;48.770;9.186;2022-10-12T07:35:36;13.40;99.90
47921;DHT22;33686;48.770;9.186;2022-10-12T07:38:02;13.50;99.90
47921;DHT22;33686;48.770;9.186;2022-10-12T07:40:28;13.50;99.90
47921;DHT22;33686;48.770;9.186;2022-10-12T07:42:53;13.50;99.90
47921;DHT22;33686;48.770;9.186;2022-10-12T07:45:19;13.40;99.90
47921;DHT22;33686;48.770;9.186;2022-10-12T07:47:44;13.40;99.90
47921;DHT22;33686;48.770;9.186;2022-10-12T07:50:11;13.50;99.90
47921;DHT22;33686;48.770;9.186;2022-10-12T07:52:36;13.60;99.90
47921;DHT22;33686;48.770;9.186;2022-10-12T07:55:02;13.60;99.90
47921;DHT22;33686;48.770;9.186;2022-10-12T07:57:28;13.70;99.90
47921;DHT22;33686;48.770;9.186;2022-10-12T07:59:53;13.80;99.90
47921;DHT22;33686;48.770;9.186;2022-10-12T08:02:19;13.90;99.90
47921;DHT22;33686;48.770;9.186;2022-10-12T08:04:45;14.00;99.90
47921;DHT22;33686;48.770;9.186;2022-10-12T08:07:11;14.20;99.90
47921;DHT22;33686;48.770;9.186;2022-10-12T08:09:36;14.30;99.90
47921;DHT22;33686;48.770;9.186;2022-10-12T08:12:02;14.40;99.90
47921;DHT22;33686;48.770;9.186;2022-10-12T08:14:28;14.50;99.90
47921;DHT22;33686;48.770;9.186;2022-10-12T08:16:53;14.50;99.90
47921;DHT22;33686;48.770;9.186;2022-10-12T08:19:19;14.60;99.90
47921;DHT22;33686;48.770;9.186;2022-10-12T08:21:44;14.50;99.90
47921;DHT22;33686;48.770;9.186;2022-10-12T08:24:10;14.70;99.90
47921;DHT22;33686;48.770;9.186;2022-10-12T08:26:36;14.90;99.90
47921;DHT22;33686;48.770;9.186;2022-10-12T08:29:02;15.00;99.90
47921;DHT22;33686;48.770;9.186;2022-10-12T08:31:28;15.20;99.90
47921;DHT22;33686;48.770;9.186;2022-10-12T08:33:55;15.10;99.90
47921;DHT22;33686;48.770;9.186;2022-10-12T08:36:20;15.10;99.90
47921;DHT22;33686;48.770;9.186;2022-10-12T08:38:48;15.20;99.90
47921;DHT22;33686;48.770;9.186;2022-10-12T08:41:20;15.10;99.90
47921;DHT22;33686;48.770;9.186;2022-10-12T08:46:19;15.20;99.90
47921;DHT22;33686;48.770;9.186;2022-10-12T08:51:12;15.50;99.90
47921;DHT22;33686;48.770;9.186;2022-10-12T08:54:01;15.60;99.90
47921;DHT22;33686;48.770;9.186;2022-10-12T08:56:25;15.90;99.90
47921;DHT22;33686;48.770;9.186;2022-10-12T08:58:51;15.90;99.90
47921;DHT22;33686;48.770;9.186;2022-10-12T09:01:22;16.00;99.90
47921;DHT22;33686;48.770;9.186;2022-10-12T09:06:29;16.20;99.90
47921;DHT22;33686;48.770;9.186;2022-10-12T09:09:18;16.30;99.90
47921;DHT22;33686;48.770;9.186;2022-10-12T09:16:41;16.10;99.90
47921;DHT22;33686;48.770;9.186;2022-10-12T09:19:18;16.30;99.90
47921;DHT22;33686;48.770;9.186;2022-10-12T09:21:45;16.40;99.90
47921;DHT22;33686;48.770;9.186;2022-10-12T09:24:16;16.30;99.90
47921;DHT22;33686;48.770;9.186;2022-10-12T09:26:42;16.20;99.90
47921;DHT22;33686;48.770;9.186;2022-10-12T09:29:30;16.20;99.90
47921;DHT22;33686;48.770;9.186;2022-10-12T09:34:42;16.00;99.90
47921;DHT22;33686;48.770;9.186;2022-10-12T09:37:11;16.00;99.90
47921;DHT22;33686;48.770;9.186;2022-10-12T09:39:39;16.10;99.90
47921;DHT22;33686;48.770;9.186;2022-10-12T09:42:05;16.10;99.90
47921;DHT22;33686;48.770;9.186;2022-10-12T09:44:32;16.10;99.90
47921;DHT22;33686;48.770;9.186;2022-10-12T09:48:06;16.10;99.90
47921;DHT22;33686;48.770;9.186;2022-10-12T09:52:12;16.10;99.90
47921;DHT22;33686;48.770;9.186;2022-10-12T09:54:44;16.10;99.90
47921;DHT22;33686;48.770;9.186;2022-10-12T09:57:16;16.00;99.90
47921;DHT22;33686;48.770;9.186;2022-10-12T09:59:43;16.10;99.90
47921;DHT22;33686;48.770;9.186;2022-10-12T10:04:35;16.20;99.90
47921;DHT22;33686;48.770;9.186;2022-10-12T10:09:45;16.30;99.90
47921;DHT22;33686;48.770;9.186;2022-10-12T10:12:12;16.30;99.90
47921;DHT22;33686;48.770;9.186;2022-10-12T10:14:41;16.00;99.90
47921;DHT22;33686;48.770;9.186;2022-10-12T10:17:07;16.00;99.90
47921;DHT22;33686;48.770;9.186;2022-10-12T10:19:33;16.20;99.90
47921;DHT22;33686;48.770;9.186;2022-10-12T10:22:03;16.00;99.90
47921;DHT22;33686;48.770;9.186;2022-10-12T10:24:30;15.90;99.90
47921;DHT22;33686;48.770;9.186;2022-10-12T10:26:59;16.00;99.90
47921;DHT22;33686;48.770;9.186;2022-10-12T10:29:29;15.90;99.90
47921;DHT22;33686;48.770;9.186;2022-10-12T10:34:36;16.10;99.90
47921;DHT22;33686;48.770;9.186;2022-10-12T10:37:04;16.30;99.90
47921;DHT22;33686;48.770;9.186;2022-10-12T10:39:50;16.20;99.90
47921;DHT22;33686;48.770;9.186;2022-10-12T10:42:17;16.10;99.90
47921;DHT22;33686;48.770;9.186;2022-10-12T10:44:56;15.90;99.90
47921;DHT22;33686;48.770;9.186;2022-10-12T10:47:22;16.00;99.90
47921;DHT22;33686;48.770;9.186;2022-10-12T10:49:49;16.00;99.90
47921;DHT22;33686;48.770;9.186;2022-10-12T10:52:22;16.20;99.90
47921;DHT22;33686;48.770;9.186;2022-10-12T10:55:04;16.50;99.90
47921;DHT22;33686;48.770;9.186;2022-10-12T10:57:30;16.70;99.90
47921;DHT22;33686;48.770;9.186;2022-10-12T10:59:59;16.70;99.90
47921;DHT22;33686;48.770;9.186;2022-10-12T11:05:16;16.80;99.90
47921;DHT22;33686;48.770;9.186;2022-10-12T11:07:47;16.90;99.90
47921;DHT22;33686;48.770;9.186;2022-10-12T11:12:47;16.90;99.90
47921;DHT22;33686;48.770;9.186;2022-10-12T11:18:05;17.10;99.90
47921;DHT22;33686;48.770;9.186;2022-10-12T11:20:49;17.20;99.90
47921;DHT22;33686;48.770;9.186;2022-10-12T11:28:19;17.30;99.90
47921;DHT22;33686;48.770;9.186;2022-10-12T11:30:48;17.40;99.90
47921;DHT22;33686;48.770;9.186;2022-10-12T11:33:36;17.30;99.90
47921;DHT22;33686;48.770;9.186;2022-10-12T11:36:07;17.20;99.90
47921;DHT22;33686;48.770;9.186;2022-10-12T11:38:41;17.00;99.90
47921;DHT22;33686;48.770;9.186;2022-10-12T11:41:13;17.20;99.90
47921;DHT22;33686;48.770;9.186;2022-10-12T11:43:40;17.20;99.90
47921;DHT22;33686;48.770;9.186;2022-10-12T11:46:09;16.80;99.90
47921;DHT22;33686;48.770;9.186;2022-10-12T11:48:38;16.50;99.90
47921;DHT22;33686;48.770;9.186;2022-10-12T11:51:05;16.60;99.90
47921;DHT22;33686;48.770;9.186;2022-10-12T11:53:47;16.50;99.90
47921;DHT22;33686;48.770;9.186;2022-10-12T11:58:46;16.60;99.90
47921;DHT22;33686;48.770;9.186;2022-10-12T12:11:28;17.30;99.90
47921;DHT22;33686;48.770;9.186;2022-10-12T12:14:39;17.30;99.90
47921;DHT22;33686;48.770;9.186;2022-10-12T12:16:41;17.40;99.90
47921;DHT22;33686;48.770;9.186;2022-10-12T12:24:35;17.20;99.90
47921;DHT22;33686;48.770;9.186;2022-10-12T12:27:01;17.30;99.90
47921;DHT22;33686;48.770;9.186;2022-10-12T12:29:26;17.20;99.90
47921;DHT22;33686;48.770;9.186;2022-10-12T12:31:53;17.10;99.90
47921;DHT22;33686;48.770;9.186;2022-10-12T12:34:20;16.90;99.90
47921;DHT22;33686;48.770;9.186;2022-10-12T12:36:46;16.70;99.90
47921;DHT22;33686;48.770;9.186;2022-10-12T12:39:25;16.60;99.90
47921;DHT22;33686;48.770;9.186;2022-10-12T12:41:57;16.60;99.90
47921;DHT22;33686;48.770;9.186;2022-10-12T12:51:52;17.60;99.90
47921;DHT22;33686;48.770;9.186;2022-10-12T12:54:20;17.70;99.90
47921;DHT22;33686;48.770;9.186;2022-10-12T13:10:20;17.30;99.90
47921;DHT22;33686;48.770;9.186;2022-10-12T13:20:45;16.50;99.90
47921;DHT22;33686;48.770;9.186;2022-10-12T13:23:11;16.50;99.90
47921;DHT22;33686;48.770;9.186;2022-10-12T13:25:42;16.30;99.90
47921;DHT22;33686;48.770;9.186;2022-10-12T13:28:10;16.30;99.90
47921;DHT22;33686;48.770;9.186;2022-10-12T13:30:38;16.40;99.90
47921;DHT22;33686;48.770;9.186;2022-10-12T13:33:11;16.50;99.90
47921;DHT22;33686;48.770;9.186;2022-10-12T13:38:22;16.50;99.90
47921;DHT22;33686;48.770;9.186;2022-10-12T13:45:47;16.90;99.90
47921;DHT22;33686;48.770;9.186;2022-10-12T13:48:17;16.90;99.90
47921;DHT22;33686;48.770;9.186;2022-10-12T13:53:37;16.80;99.90
47921;DHT22;33686;48.770;9.186;2022-10-12T13:56:17;16.60;99.90
47921;DHT22;33686;48.770;9.186;2022-10-12T13:58:43;16.70;99.90
47921;DHT22;33686;48.770;9.186;2022-10-12T14:01:09;16.60;99.90
47921;DHT22;33686;48.770;9.186;2022-10-12T14:03:37;16.60;99.90
47921;DHT22;33686;48.770;9.186;2022-10-12T14:06:03;16.30;99.90
47921;DHT22;33686;48.770;9.186;2022-10-12T14:08:29;16.30;99.90
47921;DHT22;33686;48.770;9.186;2022-10-12T14:10:56;16.10;99.90
47921;DHT22;33686;48.770;9.186;2022-10-12T14:13:32;16.20;99.90
47921;DHT22;33686;48.770;9.186;2022-10-12T14:15:59;16.10;99.90
47921;DHT22;33686;48.770;9.186;2022-10-12T14:18:38;16.10;99.90
47921;DHT22;33686;48.770;9.186;2022-10-12T14:21:17;16.20;99.90
47921;DHT22;33686;48.770;9.186;2022-10-12T14:23:45;16.30;99.90
47921;DHT22;33686;48.770;9.186;2022-10-12T14:26:21;16.50;99.90
47921;DHT22;33686;48.770;9.186;2022-10-12T14:28:47;16.40;99.90
47921;DHT22;33686;48.770;9.186;2022-10-12T14:31:12;16.50;99.90
47921;DHT22;33686;48.770;9.186;2022-10-12T14:33:38;16.40;99.90
47921;DHT22;33686;48.770;9.186;2022-10-12T14:36:11;16.40;99.90
47921;DHT22;33686;48.770;9.186;2022-10-12T14:38:41;16.30;99.90
47921;DHT22;33686;48.770;9.186;2022-10-12T14:46:36;16.20;99.90
47921;DHT22;33686;48.770;9.186;2022-10-12T14:49:02;16.10;99.90
47921;DHT22;33686;48.770;9.186;2022-10-12T14:51:28;16.10;99.90
47921;DHT22;33686;48.770;9.186;2022-10-12T14:54:00;16.20;99.90
47921;DHT22;33686;48.770;9.186;2022-10-12T14:56:26;16.20;99.90
47921;DHT22;33686;48.770;9.186;2022-10-12T14:58:52;16.30;99.90
47921;DHT22;33686;48.770;9.186;2022-10-12T15:01:17;16.20;99.90
47921;DHT22;33686;48.770;9.186;2022-10-12T15:03:43;16.20;99.90
47921;DHT22;33686;48.770;9.186;2022-10-12T15:06:12;16.20;99.90
47921;DHT22;33686;48.770;9.186;2022-10-12T15:08:38;16.20;99.90
47921;DHT22;33686;48.770;9.186;2022-10-12T15:11:04;16.20;99.90
47921;DHT22;33686;48.770;9.186;2022-10-12T15:13:29;16.20;99.90
47921;DHT22;33686;48.770;9.186;2022-10-12T15:15:55;16.30;99.90
47921;DHT22;33686;48.770;9.186;2022-10-12T15:18:21;16.20;99.90
47921;DHT22;33686;48.770;9.186;2022-10-12T15:20:46;16.20;99.90
47921;DHT22;33686;48.770;9.186;2022-10-12T15:23:13;16.20;99.90
47921;DHT22;33686;48.770;9.186;2022-10-12T15:25:44;16.30;99.90
47921;DHT22;33686;48.770;9.186;2022-10-12T15:28:12;16.20;99.90
47921;DHT22;33686;48.770;9.186;2022-10-12T15:30:37;16.20;99.90
47921;DHT22;33686;48.770;9.186;2022-10-12T15:33:03;16.20;99.90
47921;DHT22;33686;48.770;9.186;2022-10-12T15:35:31;16.20;99.90
47921;DHT22;33686;48.770;9.186;2022-10-12T15:37:58;16.10;99.90
47921;DHT22;33686;48.770;9.186;2022-10-12T15:40:23;16.10;99.90
47921;DHT22;33686;48.770;9.186;2022-10-12T15:42:51;16.10;99.90
47921;DHT22;33686;48.770;9.186;2022-10-12T15:47:43;16.00;99.90
47921;DHT22;33686;48.770;9.186;2022-10-12T15:50:09;16.10;99.90
47921;DHT22;33686;48.770;9.186;2022-10-12T15:52:35;16.00;99.90
47921;DHT22;33686;48.770;9.186;2022-10-12T15:55:00;16.00;99.90
47921;DHT22;33686;48.770;9.186;2022-10-12T15:57:26;15.80;99.90
47921;DHT22;33686;48.770;9.186;2022-10-12T15:59:51;15.50;99.90
47921;DHT22;33686;48.770;9.186;2022-10-12T16:02:17;15.30;99.90
47921;DHT22;33686;48.770;9.186;2022-10-12T16:04:44;15.10;99.90
47921;DHT22;33686;48.770;9.186;2022-10-12T16:07:09;15.00;99.90
47921;DHT22;33686;48.770;9.186;2022-10-12T16:09:35;14.80;99.90
47921;DHT22;33686;48.770;9.186;2022-10-12T16:12:00;14.70;99.90
47921;DHT22;33686;48.770;9.186;2022-10-12T16:14:26;14.70;99.90
47921;DHT22;33686;48.770;9.186;2022-10-12T16:16:51;14.60;99.90
47921;DHT22;33686;48.770;9.186;2022-10-12T16:19:17;14.40;99.90
47921;DHT22;33686;48.770;9.186;2022-10-12T16:21:42;14.20;99.90
47921;DHT22;33686;48.770;9.186;2022-10-12T16:24:08;14.10;99.90
47921;DHT22;33686;48.770;9.186;2022-10-12T16:26:33;14.10;99.90
47921;DHT22;33686;48.770;9.186;2022-10-12T16:28:59;14.00;99.90
47921;DHT22;33686;48.770;9.186;2022-10-12T16:31:24;14.00;99.90
47921;DHT22;33686;48.770;9.186;2022-10-12T16:33:50;14.00;99.90
47921;DHT22;33686;48.770;9.186;2022-10-12T16:36:16;13.90;99.90
47921;DHT22;33686;48.770;9.186;2022-10-12T16:38:42;13.80;99.90
47921;DHT22;33686;48.770;9.186;2022-10-12T16:41:08;13.70;99.90
47921;DHT22;33686;48.770;9.186;2022-10-12T16:43:34;13.70;99.90
47921;DHT22;33686;48.770;9.186;2022-10-12T16:45:59;13.70;99.90
47921;DHT22;33686;48.770;9.186;2022-10-12T16:48:25;13.70;99.90
47921;DHT22;33686;48.770;9.186;2022-10-12T16:50:50;13.60;99.90
47921;DHT22;33686;48.770;9.186;2022-10-12T16:53:16;13.60;99.90
47921;DHT22;33686;48.770;9.186;2022-10-12T16:55:41;13.50;99.90
47921;DHT22;33686;48.770;9.186;2022-10-12T16:58:07;13.40;99.90
47921;DHT22;33686;48.770;9.186;2022-10-12T17:00:32;13.40;99.90
47921;DHT22;33686;48.770;9.186;2022-10-12T17:02:58;13.30;99.90
47921;DHT22;33686;48.770;9.186;2022-10-12T17:05:24;13.30;99.90
47921;DHT22;33686;48.770;9.186;2022-10-12T17:07:49;13.40;99.90
47921;DHT22;33686;48.770;9.186;2022-10-12T17:10:15;13.50;99.90
47921;DHT22;33686;48.770;9.186;2022-10-12T17:12:40;13.40;99.90
47921;DHT22;33686;48.770;9.186;2022-10-12T17:15:06;13.30;99.90
47921;DHT22;33686;48.770;9.186;2022-10-12T17:17:32;13.10;99.90
47921;DHT22;33686;48.770;9.186;2022-10-12T17:19:57;13.00;99.90
47921;DHT22;33686;48.770;9.186;2022-10-12T17:22:23;13.00;99.90
47921;DHT22;33686;48.770;9.186;2022-10-12T17:24:48;13.00;99.90
47921;DHT22;33686;48.770;9.186;2022-10-12T17:27:14;12.90;99.90
47921;DHT22;33686;48.770;9.186;2022-10-12T17:29:40;12.90;99.90
47921;DHT22;33686;48.770;9.186;2022-10-12T17:32:07;12.80;99.90
47921;DHT22;33686;48.770;9.186;2022-10-12T17:34:39;12.80;99.90
47921;DHT22;33686;48.770;9.186;2022-10-12T17:37:05;12.80;99.90
47921;DHT22;33686;48.770;9.186;2022-10-12T17:39:32;12.80;99.90
47921;DHT22;33686;48.770;9.186;2022-10-12T17:41:58;12.80;99.90
47921;DHT22;33686;48.770;9.186;2022-10-12T17:44:24;12.70;99.90
47921;DHT22;33686;48.770;9.186;2022-10-12T17:46:51;12.70;99.90
47921;DHT22;33686;48.770;9.186;2022-10-12T17:49:18;12.70;99.90
47921;DHT22;33686;48.770;9.186;2022-10-12T17:51:44;12.80;99.90
47921;DHT22;33686;48.770;9.186;2022-10-12T17:54:15;12.70;99.90
47921;DHT22;33686;48.770;9.186;2022-10-12T17:56:41;12.70;99.90
47921;DHT22;33686;48.770;9.186;2022-10-12T17:59:07;12.70;99.90
47921;DHT22;33686;48.770;9.186;2022-10-12T18:01:32;12.60;99.90
47921;DHT22;33686;48.770;9.186;2022-10-12T18:03:59;12.60;99.90
47921;DHT22;33686;48.770;9.186;2022-10-12T18:06:24;12.60;99.90
47921;DHT22;33686;48.770;9.186;2022-10-12T18:08:50;12.60;99.90
47921;DHT22;33686;48.770;9.186;2022-10-12T18:11:17;12.60;99.90
47921;DHT22;33686;48.770;9.186;2022-10-12T18:13:47;12.60;99.90
47921;DHT22;33686;48.770;9.186;2022-10-12T18:16:13;12.60;99.90
47921;DHT22;33686;48.770;9.186;2022-10-12T18:18:39;12.60;99.90
47921;DHT22;33686;48.770;9.186;2022-10-12T18:21:09;12.50;99.90
47921;DHT22;33686;48.770;9.186;2022-10-12T18:23:35;12.60;99.90
47921;DHT22;33686;48.770;9.186;2022-10-12T18:26:05;12.60;99.90
47921;DHT22;33686;48.770;9.186;2022-10-12T18:28:31;12.50;99.90
47921;DHT22;33686;48.770;9.186;2022-10-12T18:30:57;12.50;99.90
47921;DHT22;33686;48.770;9.186;2022-10-12T18:33:22;12.40;99.90
47921;DHT22;33686;48.770;9.186;2022-10-12T18:35:48;12.40;99.90
47921;DHT22;33686;48.770;9.186;2022-10-12T18:38:14;12.40;99.90
47921;DHT22;33686;48.770;9.186;2022-10-12T18:40:39;12.40;99.90
47921;DHT22;33686;48.770;9.186;2022-10-12T18:43:05;12.40;99.90
47921;DHT22;33686;48.770;9.186;2022-10-12T18:45:30;12.40;99.90
47921;DHT22;33686;48.770;9.186;2022-10-12T18:47:56;12.40;99.90
47921;DHT22;33686;48.770;9.186;2022-10-12T18:50:22;12.40;99.90
47921;DHT22;33686;48.770;9.186;2022-10-12T18:52:48;12.40;99.90
47921;DHT22;33686;48.770;9.186;2022-10-12T18:55:13;12.40;99.90
47921;DHT22;33686;48.770;9.186;2022-10-12T18:57:39;12.40;99.90
47921;DHT22;33686;48.770;9.186;2022-10-12T19:00:05;12.40;99.90
47921;DHT22;33686;48.770;9.186;2022-10-12T19:02:32;12.30;99.90
47921;DHT22;33686;48.770;9.186;2022-10-12T19:04:57;12.40;99.90
47921;DHT22;33686;48.770;9.186;2022-10-12T19:07:23;12.40;99.90
47921;DHT22;33686;48.770;9.186;2022-10-12T19:09:49;12.30;99.90
47921;DHT22;33686;48.770;9.186;2022-10-12T19:12:15;12.30;99.90
47921;DHT22;33686;48.770;9.186;2022-10-12T19:14:44;12.20;99.90
47921;DHT22;33686;48.770;9.186;2022-10-12T19:17:09;12.30;99.90
47921;DHT22;33686;48.770;9.186;2022-10-12T19:19:35;12.30;99.90
47921;DHT22;33686;48.770;9.186;2022-10-12T19:22:00;12.30;99.90
47921;DHT22;33686;48.770;9.186;2022-10-12T19:24:26;12.30;99.90
47921;DHT22;33686;48.770;9.186;2022-10-12T19:26:51;12.30;99.90
47921;DHT22;33686;48.770;9.186;2022-10-12T19:29:17;12.20;99.90
47921;DHT22;33686;48.770;9.186;2022-10-12T19:31:44;12.20;99.90
47921;DHT22;33686;48.770;9.186;2022-10-12T19:34:11;12.20;99.90
47921;DHT22;33686;48.770;9.186;2022-10-12T19:36:38;12.10;99.90
47921;DHT22;33686;48.770;9.186;2022-10-12T19:39:05;12.00;99.90
47921;DHT22;33686;48.770;9.186;2022-10-12T19:41:31;11.90;99.90
47921;DHT22;33686;48.770;9.186;2022-10-12T19:43:57;11.90;99.90
47921;DHT22;33686;48.770;9.186;2022-10-12T19:46:23;11.80;99.90
47921;DHT22;33686;48.770;9.186;2022-10-12T19:48:49;11.80;99.90
47921;DHT22;33686;48.770;9.186;2022-10-12T19:51:15;11.90;99.90
47921;DHT22;33686;48.770;9.186;2022-10-12T19:53:41;11.90;99.90
47921;DHT22;33686;48.770;9.186;2022-10-12T19:56:08;11.80;99.90
47921;DHT22;33686;48.770;9.186;2022-10-12T19:58:34;11.70;99.90
47921;DHT22;33686;48.770;9.186;2022-10-12T20:01:10;11.70;99.90
47921;DHT22;33686;48.770;9.186;2022-10-12T20:03:36;11.70;99.90
47921;DHT22;33686;48.770;9.186;2022-10-12T20:06:02;11.80;99.90
47921;DHT22;33686;48.770;9.186;2022-10-12T20:08:32;11.80;99.90
47921;DHT22;33686;48.770;9.186;2022-10-12T20:10:58;11.80;99.90
47921;DHT22;33686;48.770;9.186;2022-10-12T20:13:23;11.70;99.90
47921;DHT22;33686;48.770;9.186;2022-10-12T20:15:52;11.70;99.90
47921;DHT22;33686;48.770;9.186;2022-10-12T20:18:18;11.70;99.90
47921;DHT22;33686;48.770;9.186;2022-10-12T20:20:43;11.70;99.90
47921;DHT22;33686;48.770;9.186;2022-10-12T20:23:09;11.70;99.90
47921;DHT22;33686;48.770;9.186;2022-10-12T20:25:44;11.70;99.90
47921;DHT22;33686;48.770;9.186;2022-10-12T20:28:10;11.70;99.90
47921;DHT22;33686;48.770;9.186;2022-10-12T20:30:36;11.80;99.90
47921;DHT22;33686;48.770;9.186;2022-10-12T20:33:02;11.70;99.90
47921;DHT22;33686;48.770;9.186;2022-10-12T20:35:27;11.80;99.90
47921;DHT22;33686;48.770;9.186;2022-10-12T20:37:53;11.90;99.90
47921;DHT22;33686;48.770;9.186;2022-10-12T20:40:19;11.90;99.90
47921;DHT22;33686;48.770;9.186;2022-10-12T20:42:44;11.90;99.90
47921;DHT22;33686;48.770;9.186;2022-10-12T20:45:10;11.90;99.90
47921;DHT22;33686;48.770;9.186;2022-10-12T20:47:42;11.90;99.90
47921;DHT22;33686;48.770;9.186;2022-10-12T20:50:08;11.90;99.90
47921;DHT22;33686;48.770;9.186;2022-10-12T20:52:34;12.00;99.90
47921;DHT22;33686;48.770;9.186;2022-10-12T20:54:59;12.00;99.90
47921;DHT22;33686;48.770;9.186;2022-10-12T20:57:25;12.00;99.90
47921;DHT22;33686;48.770;9.186;2022-10-12T20:59:50;12.00;99.90
47921;DHT22;33686;48.770;9.186;2022-10-12T21:02:16;12.10;99.90
47921;DHT22;33686;48.770;9.186;2022-10-12T21:04:42;12.10;99.90
47921;DHT22;33686;48.770;9.186;2022-10-12T21:07:08;12.00;99.90
47921;DHT22;33686;48.770;9.186;2022-10-12T21:09:36;12.00;99.90
47921;DHT22;33686;48.770;9.186;2022-10-12T21:12:02;12.00;99.90
47921;DHT22;33686;48.770;9.186;2022-10-12T21:14:27;12.00;99.90
47921;DHT22;33686;48.770;9.186;2022-10-12T21:16:53;12.20;99.90
47921;DHT22;33686;48.770;9.186;2022-10-12T21:19:18;12.20;99.90
47921;DHT22;33686;48.770;9.186;2022-10-12T21:21:44;12.20;99.90
47921;DHT22;33686;48.770;9.186;2022-10-12T21:24:11;12.30;99.90
47921;DHT22;33686;48.770;9.186;2022-10-12T21:26:37;12.20;99.90
47921;DHT22;33686;48.770;9.186;2022-10-12T21:29:03;12.20;99.90
47921;DHT22;33686;48.770;9.186;2022-10-12T21:31:29;12.20;99.90
47921;DHT22;33686;48.770;9.186;2022-10-12T21:33:56;12.10;99.90
47921;DHT22;33686;48.770;9.186;2022-10-12T21:36:22;12.10;99.90
47921;DHT22;33686;48.770;9.186;2022-10-12T21:38:49;12.00;99.90
47921;DHT22;33686;48.770;9.186;2022-10-12T21:41:15;12.00;99.90
47921;DHT22;33686;48.770;9.186;2022-10-12T21:43:41;12.10;99.90
47921;DHT22;33686;48.770;9.186;2022-10-12T21:46:08;12.00;99.90
47921;DHT22;33686;48.770;9.186;2022-10-12T21:48:34;12.00;99.90
47921;DHT22;33686;48.770;9.186;2022-10-12T21:51:00;12.00;99.90
47921;DHT22;33686;48.770;9.186;2022-10-12T21:53:25;12.00;99.90
47921;DHT22;33686;48.770;9.186;2022-10-12T21:55:51;12.00;99.90
47921;DHT22;33686;48.770;9.186;2022-10-12T21:58:17;12.00;99.90
